Brandon Municipal Airport
CYBR : now visible

Airfield :











YOU CAN JOIN US ON...

 
LOGIN :

Register | Disclaimer

   EN    FR    IT 

 









Legend :    VFR   Marginal VFR   IFR   Intensive IFR   Very Intensive IFR
Visi :
Ceiling :
>= 8 km
>= 3000ft
5 to 8 km
1000 to 3000 ft
1500m to 5 km
500 to 1000 ft
800 to 1500m
200 to 500 ft
< 800m
< 200 ft
Symbols :   Thunderstorms  Fog  Heavy snow  Heavy precipitations  Wind > 20 kt






- Airport Elevation : 1343 ft
- IATA code : YBR


CYBR - Brandon Municipal

CURRENT METAR :
  • 072100Z 15012G20KT 15SM FEW030 FEW120 BKN250 29/22 A2968 RMK CU1AC1CI5 SLP054 DENSITY ALT 3500FT

EXPIRED METARs :
  • 072000Z 15013KT 15SM FEW028 FEW090 BKN250 27/21 A2970 RMK CU1AC1CI5 PRESFR SLP059 DENSITY ALT 3300FT
  • 071900Z 15012KT 15SM FEW030 FEW100 BKN250 26/20 A2972 RMK CU1AC1CI7 CU TR AC TR SLP068 DENSITY ALT 3200FT

TAF AMD TAF CYBR
Valid from the 07 at 21:00 until the 08 at 06:00 UTC


072124Z 0721/0806 16012KT P6SM BKN050 BKN120
TEMPO 0721/0804 VRB20G30KT 4SM TSRA BKN050CB
BECMG 0800/0802 30015G25KT
FM080400 30012G22KT P6SM SCT050 RMK NXT FCST BY 080000Z
CZWG FIR / North America



MET'MAP, your aeronautical weather chart ! - Copyright ORBIFLY December 2007 - Disclaimer

ORBIFLY MET'MAP TEAM :

Programming & Development : Alexandra Zaïnal
Concept & original design : Baudouin d'Aumeries
Assistance for programming : Marc-Olivier Méhu
Technical & hardware support : Manuel Goepfert

Contact : metmap@orbifly.com




SOURCES & CREDITS :

   NOAA       Earth
Advisory